createdAt,value
2022-11-27T00:01:29.847Z,19.73
2022-11-27T00:03:57.515Z,17.37
2022-11-27T00:06:29.195Z,18.70
2022-11-27T00:08:57.093Z,11.47
2022-11-27T00:11:27.788Z,15.40
2022-11-27T00:13:55.432Z,13.10
2022-11-27T00:16:24.390Z,18.13
2022-11-27T00:18:51.611Z,12.03
2022-11-27T00:21:22.703Z,15.70
2022-11-27T00:23:52.919Z,13.20
2022-11-27T00:26:20.668Z,16.07
2022-11-27T00:28:48.513Z,11.50
2022-11-27T00:31:18.496Z,10.47
2022-11-27T00:33:46.235Z,9.10
2022-11-27T00:36:14.768Z,13.43
2022-11-27T00:38:42.570Z,10.53
2022-11-27T00:41:17.207Z,16.43
2022-11-27T00:43:45.535Z,12.80
2022-11-27T00:46:13.710Z,13.90
2022-11-27T00:48:41.437Z,15.20
2022-11-27T00:51:11.655Z,11.90
2022-11-27T00:53:38.704Z,13.10
2022-11-27T00:56:06.643Z,14.67
2022-11-27T00:58:35.219Z,12.00
2022-11-27T01:01:05.543Z,11.73
2022-11-27T01:03:34.281Z,11.10
2022-11-27T01:06:04.187Z,11.50
2022-11-27T01:08:31.549Z,13.70
2022-11-27T01:10:59.733Z,11.23
2022-11-27T01:13:29.404Z,12.80
2022-11-27T01:16:02.848Z,10.93
2022-11-27T01:18:30.387Z,14.63
2022-11-27T01:20:57.831Z,12.30
2022-11-27T01:23:25.335Z,14.37
2022-11-27T01:25:53.728Z,11.57
2022-11-27T01:28:22.331Z,15.37
2022-11-27T01:30:50.535Z,10.37
2022-11-27T01:33:19.463Z,13.13
2022-11-27T01:35:56.213Z,11.03
2022-11-27T01:38:24.640Z,17.33
2022-11-27T01:40:57.942Z,9.80
2022-11-27T01:43:40.164Z,14.93
2022-11-27T01:46:25.398Z,11.63
2022-11-27T01:48:59.696Z,20.23
2022-11-27T01:51:27.043Z,10.30
2022-11-27T01:53:54.936Z,14.73
2022-11-27T01:56:24.754Z,11.73
2022-11-27T01:58:52.616Z,11.47
2022-11-27T02:01:19.683Z,11.73
2022-11-27T02:03:46.755Z,13.67
2022-11-27T02:06:15.145Z,11.90
2022-11-27T02:08:43.048Z,12.13
2022-11-27T02:11:17.423Z,14.77
2022-11-27T02:13:51.046Z,14.33
2022-11-27T02:16:29.808Z,14.03
2022-11-27T02:19:07.367Z,12.60
2022-11-27T02:21:44.417Z,13.77
2022-11-27T02:24:46.986Z,14.77
2022-11-27T02:27:47.315Z,21.80
2022-11-27T02:30:16.037Z,14.83
2022-11-27T02:32:56.091Z,12.37
2022-11-27T02:35:31.729Z,18.50
2022-11-27T02:38:06.396Z,14.83
2022-11-27T02:40:41.333Z,14.93
2022-11-27T02:43:12.912Z,17.30
2022-11-27T02:45:45.126Z,14.73
2022-11-27T02:48:16.031Z,19.47
2022-11-27T02:50:46.724Z,15.67
2022-11-27T02:53:20.810Z,16.00
2022-11-27T02:55:52.011Z,15.17
2022-11-27T02:58:25.011Z,13.13
2022-11-27T03:00:54.795Z,20.23
2022-11-27T03:03:26.507Z,15.10
2022-11-27T03:06:02.504Z,14.30
2022-11-27T03:08:41.651Z,16.13
2022-11-27T03:11:11.341Z,13.47
2022-11-27T03:13:42.684Z,13.17
2022-11-27T03:16:20.712Z,13.13
2022-11-27T03:18:58.693Z,15.60
2022-11-27T03:21:34.313Z,17.60
2022-11-27T03:24:01.606Z,16.57
2022-11-27T03:26:29.044Z,16.63
2022-11-27T03:28:59.995Z,16.73
2022-11-27T03:31:28.915Z,15.60
2022-11-27T03:33:56.541Z,15.47
2022-11-27T03:36:24.786Z,20.87
2022-11-27T03:38:55.585Z,17.73
2022-11-27T03:41:38.748Z,16.43
2022-11-27T03:44:22.119Z,17.07
2022-11-27T03:47:10.514Z,15.83
2022-11-27T03:49:56.956Z,19.30
2022-11-27T03:52:44.891Z,13.93
2022-11-27T03:55:23.973Z,18.10
2022-11-27T03:58:00.306Z,14.63
2022-11-27T04:00:32.905Z,16.97
2022-11-27T04:03:03.283Z,15.23
2022-11-27T04:05:30.700Z,21.43
2022-11-27T04:07:57.950Z,17.10
2022-11-27T04:10:24.982Z,15.53
2022-11-27T04:12:51.980Z,19.03
2022-11-27T04:15:18.946Z,14.53
2022-11-27T04:17:46.153Z,17.03
2022-11-27T04:20:15.443Z,15.70
2022-11-27T04:22:42.413Z,15.27
2022-11-27T04:25:09.919Z,17.03
2022-11-27T04:27:36.855Z,15.20
2022-11-27T04:30:05.236Z,18.00
2022-11-27T04:32:32.208Z,18.13
2022-11-27T04:34:59.139Z,14.70
2022-11-27T04:37:27.420Z,16.37
2022-11-27T04:39:54.354Z,17.37
2022-11-27T04:42:21.373Z,15.70
2022-11-27T04:44:48.293Z,19.43
2022-11-27T04:47:16.377Z,17.47
2022-11-27T04:49:43.350Z,16.87
2022-11-27T04:52:13.725Z,17.23
2022-11-27T04:54:42.237Z,16.17
2022-11-27T04:57:09.490Z,19.20
2022-11-27T04:59:36.524Z,19.67
2022-11-27T05:02:03.629Z,16.77
2022-11-27T05:04:30.897Z,15.87
2022-11-27T05:06:57.911Z,17.10
2022-11-27T05:09:25.072Z,18.53
2022-11-27T05:11:53.314Z,17.10
2022-11-27T05:14:22.423Z,15.37
2022-11-27T05:16:52.547Z,15.80
2022-11-27T05:19:21.945Z,15.10
2022-11-27T05:21:50.083Z,14.60
2022-11-27T05:24:19.825Z,20.90
2022-11-27T05:26:47.627Z,17.70
2022-11-27T05:29:16.452Z,14.67
2022-11-27T05:31:43.692Z,16.40
2022-11-27T05:34:11.379Z,17.40
2022-11-27T05:36:39.570Z,16.43
2022-11-27T05:39:08.561Z,14.50
2022-11-27T05:41:37.532Z,13.67
2022-11-27T05:44:05.652Z,15.97
2022-11-27T05:46:34.245Z,14.23
2022-11-27T05:49:01.360Z,13.53
2022-11-27T05:51:28.450Z,16.27
2022-11-27T05:53:55.452Z,13.17
2022-11-27T05:56:22.429Z,14.47
2022-11-27T05:58:51.150Z,13.83
2022-11-27T06:01:19.275Z,13.73
2022-11-27T06:03:49.923Z,15.00
2022-11-27T06:06:19.780Z,13.07
2022-11-27T06:08:47.985Z,14.73
2022-11-27T06:11:17.621Z,15.17
2022-11-27T06:13:45.961Z,14.40
2022-11-27T06:16:15.796Z,15.93
2022-11-27T06:18:43.210Z,13.37
2022-11-27T06:21:14.480Z,15.50
2022-11-27T06:23:43.105Z,16.87
2022-11-27T06:26:16.720Z,17.47
2022-11-27T06:28:43.885Z,15.23
2022-11-27T06:31:17.705Z,16.23
2022-11-27T06:33:46.064Z,14.63
2022-11-27T06:36:14.451Z,14.80
2022-11-27T06:38:41.832Z,14.83
2022-11-27T06:41:11.761Z,15.93
2022-11-27T06:43:39.226Z,12.67
2022-11-27T06:46:11.272Z,12.13
2022-11-27T06:48:38.301Z,16.00
2022-11-27T06:51:08.023Z,13.23
2022-11-27T06:53:38.529Z,13.77
2022-11-27T06:56:08.997Z,15.37
2022-11-27T06:58:36.907Z,13.93
2022-11-27T07:01:08.627Z,12.77
2022-11-27T07:03:35.784Z,13.40
2022-11-27T07:06:05.464Z,14.50
2022-11-27T07:08:33.435Z,14.10
2022-11-27T07:11:04.791Z,15.73
2022-11-27T07:13:32.645Z,14.73
2022-11-27T07:16:01.639Z,14.40
2022-11-27T07:18:29.323Z,15.23
2022-11-27T07:20:57.075Z,14.77
2022-11-27T07:23:24.307Z,17.03
2022-11-27T07:25:51.367Z,13.93
2022-11-27T07:28:19.755Z,13.70
2022-11-27T07:30:54.713Z,12.40
2022-11-27T07:33:21.915Z,14.43
2022-11-27T07:35:49.085Z,14.17
2022-11-27T07:38:16.334Z,15.60
2022-11-27T07:40:43.246Z,18.07
2022-11-27T07:43:10.188Z,12.20
2022-11-27T07:45:38.661Z,13.50
2022-11-27T07:48:06.158Z,12.30
2022-11-27T07:50:33.205Z,13.57
2022-11-27T07:53:00.132Z,15.87
2022-11-27T07:55:27.112Z,15.03
2022-11-27T07:57:54.143Z,15.40
2022-11-27T08:00:21.956Z,15.37
2022-11-27T08:02:50.299Z,14.20
2022-11-27T08:05:17.470Z,12.47
2022-11-27T08:07:44.428Z,12.87
2022-11-27T08:10:11.562Z,13.03
2022-11-27T08:12:38.591Z,18.37
2022-11-27T08:15:07.280Z,14.67
2022-11-27T08:17:34.462Z,14.63
2022-11-27T08:20:04.071Z,15.27
2022-11-27T08:22:31.108Z,14.33
2022-11-27T08:24:58.230Z,16.23
2022-11-27T08:27:25.177Z,14.53
2022-11-27T08:29:52.120Z,14.83
2022-11-27T08:32:19.081Z,14.27
2022-11-27T08:34:46.007Z,18.77
2022-11-27T08:37:14.356Z,16.07
2022-11-27T08:39:41.337Z,14.70
2022-11-27T08:42:08.584Z,13.03
2022-11-27T08:44:35.572Z,14.40
2022-11-27T08:47:02.576Z,12.57
2022-11-27T08:49:29.521Z,15.37
2022-11-27T08:51:56.487Z,15.83
2022-11-27T08:54:24.967Z,14.50
2022-11-27T08:56:52.692Z,14.93
2022-11-27T08:59:20.248Z,14.97
2022-11-27T09:01:47.216Z,13.30
2022-11-27T09:04:14.199Z,12.30
2022-11-27T09:06:41.866Z,12.40
2022-11-27T09:09:08.896Z,16.30
2022-11-27T09:11:38.070Z,15.43
2022-11-27T09:14:06.010Z,14.20
2022-11-27T09:16:33.499Z,15.40
2022-11-27T09:19:00.606Z,12.10
2022-11-27T09:21:30.576Z,14.60
2022-11-27T09:23:59.694Z,12.43
2022-11-27T09:26:28.653Z,14.73
2022-11-27T09:28:59.203Z,13.30
2022-11-27T09:31:26.537Z,9.83
2022-11-27T09:33:54.657Z,12.87
2022-11-27T09:36:25.308Z,13.27
2022-11-27T09:38:53.240Z,13.53
2022-11-27T09:41:44.235Z,16.70
2022-11-27T09:44:25.606Z,12.10
2022-11-27T09:46:56.335Z,13.27
2022-11-27T09:49:29.011Z,14.83
2022-11-27T09:52:03.920Z,13.33
2022-11-27T09:54:38.733Z,18.93
2022-11-27T09:57:07.360Z,12.80
2022-11-27T09:59:45.789Z,15.13
2022-11-27T10:02:19.527Z,12.50
2022-11-27T10:05:12.466Z,13.83
2022-11-27T10:07:47.096Z,13.97
2022-11-27T10:10:36.232Z,17.97
2022-11-27T10:13:18.373Z,13.47
2022-11-27T10:15:55.666Z,15.37
2022-11-27T10:18:35.543Z,16.07
2022-11-27T10:21:13.036Z,17.40
2022-11-27T10:23:53.959Z,16.20
2022-11-27T10:26:29.090Z,12.70
2022-11-27T10:29:04.806Z,13.57
2022-11-27T10:31:40.790Z,13.73
2022-11-27T10:34:25.970Z,12.53
2022-11-27T10:36:56.525Z,12.20
2022-11-27T10:39:32.189Z,13.10
2022-11-27T10:42:10.205Z,15.30
2022-11-27T10:44:45.894Z,12.97
2022-11-27T10:47:15.715Z,12.70
2022-11-27T10:49:44.280Z,11.97
2022-11-27T10:52:15.771Z,12.77
2022-11-27T10:54:46.869Z,9.90
2022-11-27T10:57:43.895Z,10.57
2022-11-27T11:00:25.533Z,13.03
2022-11-27T11:03:03.004Z,11.30
2022-11-27T11:05:41.352Z,14.27
2022-11-27T11:08:20.350Z,12.20
2022-11-27T11:10:53.454Z,12.10
2022-11-27T11:13:23.510Z,12.67
2022-11-27T11:15:55.269Z,12.57
2022-11-27T11:18:26.930Z,14.80
2022-11-27T11:20:57.662Z,11.00
2022-11-27T11:23:30.803Z,11.90
2022-11-27T11:26:04.091Z,12.87
2022-11-27T11:28:39.347Z,10.43
2022-11-27T11:31:16.710Z,13.20
2022-11-27T11:33:55.200Z,13.23
2022-11-27T11:36:22.637Z,12.20
2022-11-27T11:38:51.462Z,13.33
2022-11-27T11:41:20.085Z,12.70
2022-11-27T11:43:57.447Z,10.60
2022-11-27T11:46:28.490Z,11.10
2022-11-27T11:49:01.857Z,13.87
2022-11-27T11:51:57.388Z,11.43
2022-11-27T11:54:50.346Z,10.40
2022-11-27T11:57:41.015Z,15.83
2022-11-27T12:00:14.581Z,11.87
2022-11-27T12:03:13.763Z,12.53
2022-11-27T12:06:06.263Z,13.00
2022-11-27T12:08:53.992Z,13.17
2022-11-27T12:11:30.607Z,11.93
2022-11-27T12:14:14.166Z,12.20
2022-11-27T12:16:59.006Z,9.60
2022-11-27T12:20:01.686Z,12.83
2022-11-27T12:23:06.386Z,11.27
2022-11-27T12:25:39.228Z,14.67
2022-11-27T12:28:31.699Z,10.57
2022-11-27T12:31:11.788Z,10.63
2022-11-27T12:33:57.609Z,11.97
2022-11-27T12:36:57.677Z,11.93
2022-11-27T12:39:33.778Z,13.60
2022-11-27T12:42:21.880Z,10.10
2022-11-27T12:44:57.718Z,12.43
2022-11-27T12:47:38.895Z,10.67
2022-11-27T12:50:17.628Z,12.47
2022-11-27T12:52:57.056Z,11.27
2022-11-27T12:55:30.722Z,13.13
2022-11-27T12:58:06.049Z,12.43
2022-11-27T13:00:41.082Z,12.03
2022-11-27T13:03:18.388Z,9.73
2022-11-27T13:05:53.332Z,13.07
2022-11-27T13:08:29.125Z,11.10
2022-11-27T13:11:04.882Z,12.57
2022-11-27T13:13:37.534Z,11.93
2022-11-27T13:16:11.142Z,13.47
2022-11-27T13:18:44.746Z,14.17
2022-11-27T13:21:17.483Z,11.20
2022-11-27T13:23:44.533Z,11.57
2022-11-27T13:26:25.974Z,12.20
2022-11-27T13:28:58.127Z,11.73
2022-11-27T13:31:32.127Z,11.30
2022-11-27T13:34:05.258Z,14.47
2022-11-27T13:36:38.943Z,12.20
2022-11-27T13:39:07.156Z,11.57
2022-11-27T13:41:40.243Z,8.37
2022-11-27T13:44:24.687Z,9.10
2022-11-27T13:46:56.944Z,10.57
2022-11-27T13:49:28.797Z,10.17
2022-11-27T13:52:08.286Z,9.30
2022-11-27T13:54:35.423Z,9.63
2022-11-27T13:57:17.069Z,10.43
2022-11-27T13:59:57.712Z,11.47
2022-11-27T14:02:26.303Z,10.13
2022-11-27T14:04:56.346Z,10.67
2022-11-27T14:07:36.348Z,10.13
2022-11-27T14:10:11.757Z,8.60
2022-11-27T14:12:42.562Z,9.67
2022-11-27T14:15:23.388Z,11.37
2022-11-27T14:17:53.946Z,11.40
2022-11-27T14:20:28.621Z,9.03
2022-11-27T14:23:12.262Z,10.23
2022-11-27T14:25:40.403Z,12.70
2022-11-27T14:28:16.553Z,13.07
2022-11-27T14:30:49.170Z,9.90
2022-11-27T14:33:19.156Z,11.03
2022-11-27T14:35:49.786Z,9.83
2022-11-27T14:38:17.070Z,9.70
2022-11-27T14:40:44.737Z,9.43
2022-11-27T14:43:17.038Z,11.67
2022-11-27T14:45:47.399Z,12.00
2022-11-27T14:48:22.493Z,9.53
2022-11-27T14:50:52.389Z,12.00
2022-11-27T14:53:23.622Z,11.43
2022-11-27T14:55:56.431Z,10.50
2022-11-27T14:58:28.191Z,9.43
2022-11-27T15:01:00.767Z,14.70
2022-11-27T15:03:28.411Z,12.87
2022-11-27T15:05:58.964Z,12.40
2022-11-27T15:08:27.075Z,13.20
2022-11-27T15:10:57.485Z,13.10
2022-11-27T15:13:29.090Z,12.73
2022-11-27T15:16:03.729Z,11.83
2022-11-27T15:18:33.776Z,12.67
2022-11-27T15:21:08.470Z,14.50
2022-11-27T15:23:36.311Z,9.70
2022-11-27T15:26:16.926Z,13.63
2022-11-27T15:28:56.966Z,9.80
2022-11-27T15:31:29.250Z,13.97
2022-11-27T15:34:01.121Z,10.63
2022-11-27T15:36:38.216Z,11.23
2022-11-27T15:39:21.985Z,12.27
2022-11-27T15:41:56.025Z,11.63
2022-11-27T15:44:27.209Z,11.07
2022-11-27T15:46:57.357Z,12.57
2022-11-27T15:49:24.569Z,12.87
2022-11-27T15:51:52.625Z,11.97
2022-11-27T15:54:19.890Z,11.57
2022-11-27T15:56:47.804Z,9.87
2022-11-27T15:59:15.856Z,12.70
2022-11-27T16:01:44.336Z,10.73
2022-11-27T16:04:11.346Z,8.33
2022-11-27T16:06:38.736Z,9.13
2022-11-27T16:09:07.039Z,11.27
2022-11-27T16:11:34.103Z,9.87
2022-11-27T16:14:01.099Z,13.90
2022-11-27T16:16:28.166Z,9.57
2022-11-27T16:18:59.743Z,11.07
2022-11-27T16:21:29.935Z,10.97
2022-11-27T16:23:59.295Z,11.27
2022-11-27T16:26:27.770Z,11.30
2022-11-27T16:28:55.333Z,12.70
2022-11-27T16:31:24.768Z,12.10
2022-11-27T16:33:52.571Z,9.73
2022-11-27T16:36:23.101Z,10.30
2022-11-27T16:38:54.101Z,12.07
2022-11-27T16:41:25.925Z,9.90
2022-11-27T16:43:56.785Z,13.00
2022-11-27T16:46:26.991Z,9.33
2022-11-27T16:48:56.071Z,15.00
2022-11-27T16:51:32.175Z,10.50
2022-11-27T16:54:02.602Z,11.57
2022-11-27T16:56:32.098Z,9.43
2022-11-27T16:59:03.195Z,13.27
2022-11-27T17:01:34.583Z,9.53
2022-11-27T17:04:03.541Z,9.23
2022-11-27T17:06:35.934Z,11.07
2022-11-27T17:09:06.139Z,9.77
2022-11-27T17:11:36.082Z,10.33
2022-11-27T17:14:07.632Z,12.43
2022-11-27T17:16:35.971Z,11.67
2022-11-27T17:19:03.730Z,12.73
2022-11-27T17:21:34.752Z,13.27
2022-11-27T17:24:05.085Z,11.33
2022-11-27T17:26:38.468Z,8.67
2022-11-27T17:29:05.481Z,10.90
2022-11-27T17:31:35.363Z,13.47
2022-11-27T17:34:03.694Z,8.97
2022-11-27T17:36:37.072Z,10.57
2022-11-27T17:39:06.324Z,10.23
2022-11-27T17:41:34.153Z,12.43
2022-11-27T17:44:04.436Z,8.60
2022-11-27T17:46:32.507Z,12.17
2022-11-27T17:49:04.517Z,13.73
2022-11-27T17:51:35.513Z,12.40
2022-11-27T17:54:05.202Z,10.97
2022-11-27T17:56:33.442Z,9.03
2022-11-27T17:59:00.644Z,10.23
2022-11-27T18:01:30.083Z,12.17
2022-11-27T18:04:00.781Z,8.47
2022-11-27T18:06:27.989Z,10.30
2022-11-27T18:08:58.082Z,9.20
2022-11-27T18:11:36.282Z,9.67
2022-11-27T18:14:03.976Z,10.37
2022-11-27T18:16:34.822Z,8.00
2022-11-27T18:19:21.422Z,10.13
2022-11-27T18:21:48.556Z,9.63
2022-11-27T18:24:25.081Z,8.77
2022-11-27T18:27:10.130Z,9.63
2022-11-27T18:29:39.696Z,9.20
2022-11-27T18:32:07.472Z,8.53
2022-11-27T18:34:35.119Z,8.00
2022-11-27T18:37:02.370Z,8.27
2022-11-27T18:39:31.532Z,7.87
2022-11-27T18:41:58.527Z,10.13
2022-11-27T18:44:26.699Z,7.07
2022-11-27T18:46:53.842Z,9.60
2022-11-27T18:49:27.283Z,9.03
2022-11-27T18:51:54.791Z,8.57
2022-11-27T18:54:25.383Z,10.90
2022-11-27T18:56:54.105Z,8.53
2022-11-27T18:59:21.221Z,11.00
2022-11-27T19:01:48.409Z,5.87
2022-11-27T19:04:15.725Z,6.90
2022-11-27T19:06:43.858Z,8.87
2022-11-27T19:09:11.427Z,5.90
2022-11-27T19:11:39.699Z,6.40
2022-11-27T19:14:09.565Z,7.00
2022-11-27T19:16:41.963Z,7.73
2022-11-27T19:19:50.254Z,6.27
2022-11-27T19:22:01.656Z,7.23
2022-11-27T19:24:28.703Z,10.50
2022-11-27T19:26:57.649Z,9.60
2022-11-27T19:29:26.084Z,11.07
2022-11-27T19:31:55.051Z,10.13
2022-11-27T19:34:22.693Z,8.00
2022-11-27T19:36:49.648Z,8.93
2022-11-27T19:39:16.753Z,8.40
2022-11-27T19:41:43.860Z,9.60
2022-11-27T19:44:13.002Z,6.90
2022-11-27T19:46:41.523Z,7.20
2022-11-27T19:49:14.568Z,6.87
2022-11-27T19:51:42.924Z,6.83
2022-11-27T19:54:13.383Z,8.17
2022-11-27T19:56:42.288Z,7.03
2022-11-27T19:59:11.317Z,7.03
2022-11-27T20:01:40.166Z,8.60
2022-11-27T20:04:10.960Z,7.63
2022-11-27T20:06:38.408Z,6.63
2022-11-27T20:09:06.781Z,9.13
2022-11-27T20:11:35.502Z,7.50
2022-11-27T20:14:04.546Z,6.77
2022-11-27T20:16:32.441Z,7.03
2022-11-27T20:19:01.484Z,8.00
2022-11-27T20:21:29.767Z,7.37
2022-11-27T20:23:56.882Z,6.67
2022-11-27T20:26:26.203Z,6.00
2022-11-27T20:28:54.577Z,6.87
2022-11-27T20:31:25.085Z,9.10
2022-11-27T20:33:54.223Z,6.57
2022-11-27T20:36:23.493Z,7.47
2022-11-27T20:38:53.768Z,6.57
2022-11-27T20:41:24.566Z,8.37
2022-11-27T20:43:56.004Z,5.73
2022-11-27T20:46:23.624Z,7.57
2022-11-27T20:48:52.559Z,7.90
2022-11-27T20:51:23.980Z,6.90
2022-11-27T20:53:52.261Z,7.10
2022-11-27T20:56:20.814Z,8.30
2022-11-27T20:58:48.696Z,7.27
2022-11-27T21:01:18.318Z,8.13
2022-11-27T21:03:46.715Z,6.27
2022-11-27T21:06:14.883Z,6.87
2022-11-27T21:08:42.179Z,8.43
2022-11-27T21:11:13.236Z,7.47
2022-11-27T21:13:40.659Z,8.23
2022-11-27T21:16:09.604Z,6.43
2022-11-27T21:18:37.074Z,6.87
2022-11-27T21:21:08.942Z,7.93
2022-11-27T21:23:36.021Z,8.00
2022-11-27T21:26:03.166Z,7.43
2022-11-27T21:28:32.565Z,6.70
2022-11-27T21:31:06.614Z,8.23
2022-11-27T21:33:33.875Z,10.03
2022-11-27T21:36:00.948Z,7.23
2022-11-27T21:38:28.006Z,6.20
2022-11-27T21:40:55.200Z,9.83
2022-11-27T21:43:22.498Z,7.93
2022-11-27T21:45:51.514Z,8.93
2022-11-27T21:48:18.547Z,5.40
2022-11-27T21:50:45.533Z,8.30
2022-11-27T21:53:12.500Z,7.77
2022-11-27T21:55:40.818Z,6.07
2022-11-27T21:58:08.621Z,7.03
2022-11-27T22:00:36.847Z,8.60
2022-11-27T22:03:05.190Z,10.30
2022-11-27T22:05:32.214Z,7.03
2022-11-27T22:07:59.199Z,12.13
2022-11-27T22:10:26.294Z,5.70
2022-11-27T22:12:53.333Z,7.47
2022-11-27T22:15:20.337Z,6.17
2022-11-27T22:17:48.425Z,6.90
2022-11-27T22:20:17.218Z,6.77
2022-11-27T22:22:44.231Z,6.50
2022-11-27T22:25:11.233Z,6.43
2022-11-27T22:27:38.143Z,5.93
2022-11-27T22:30:07.928Z,5.87
2022-11-27T22:32:34.931Z,5.67
2022-11-27T22:35:02.125Z,7.63
2022-11-27T22:37:30.427Z,7.07
2022-11-27T22:39:57.351Z,7.87
2022-11-27T22:42:24.301Z,6.07
2022-11-27T22:44:51.258Z,6.40
2022-11-27T22:47:18.310Z,6.93
2022-11-27T22:49:45.263Z,6.60
2022-11-27T22:52:12.218Z,8.50
2022-11-27T22:54:40.739Z,8.77
2022-11-27T22:57:07.837Z,6.40
2022-11-27T22:59:35.198Z,7.00
2022-11-27T23:02:03.581Z,5.00
2022-11-27T23:04:30.699Z,8.07
2022-11-27T23:06:57.860Z,6.93
2022-11-27T23:09:24.855Z,8.17
2022-11-27T23:11:53.263Z,6.53
2022-11-27T23:14:20.276Z,6.23
2022-11-27T23:16:47.456Z,5.80
2022-11-27T23:19:14.779Z,6.57
2022-11-27T23:21:42.180Z,5.90
2022-11-27T23:24:16.504Z,8.10
2022-11-27T23:26:44.160Z,5.20
2022-11-27T23:29:12.697Z,6.40
2022-11-27T23:31:39.952Z,5.40
2022-11-27T23:34:13.426Z,6.03
2022-11-27T23:36:40.432Z,8.27
2022-11-27T23:39:10.955Z,7.80
2022-11-27T23:41:39.632Z,10.03
2022-11-27T23:44:06.634Z,7.80
2022-11-27T23:46:35.011Z,8.63
2022-11-27T23:49:02.039Z,8.83
2022-11-27T23:51:31.959Z,7.30
2022-11-27T23:54:00.206Z,6.00
2022-11-27T23:56:30.501Z,5.63
2022-11-27T23:58:58.856Z,6.43
